Time;durP1;ratioP1;P1;durP2;ratioP2;P2;SDS_P1;SDS_P2;PMS_P1;PMS_P2;Temp;Humidity;BMP_temperature;BMP_pressure;BME280_temperature;BME280_humidity;BME280_pressure;Samples;Min_cycle;Max_cycle;Signal;HPM_P1;HPM_P2
2022/09/16 05:34:35;;;;;;;22.35;20.05;;;;;;;19.56;100.00;98531.31;1832776;77;22986;-71
2022/09/16 05:37:03;;;;;;;22.73;20.43;;;;;;;22.14;100.00;98270.17;1819298;78;21012;-72
2022/09/16 05:39:30;;;;;;;10.48;9.55;;;;;;;22.66;100.00;98318.22;1744084;81;21023;-73
2022/09/16 05:41:59;;;;;;;24.32;21.77;;;;;;;22.92;100.00;98373.84;1776907;80;21044;-72
2022/09/16 05:44:28;;;;;;;29.27;26.30;;;;;;;23.09;100.00;98498.95;1764597;80;21047;-72
2022/09/16 05:47:12;;;;;;;18.75;16.95;;;;;;;23.46;100.00;98658.30;1793771;79;22165;-76
2022/09/16 05:49:39;;;;;;;21.15;18.92;;;;;;;23.57;100.00;98804.83;1754994;79;21043;-72
2022/09/16 05:52:06;;;;;;;26.70;16.40;;;;;;;23.64;100.00;98903.36;1789370;79;21092;-73
2022/09/16 05:54:34;;;;;;;13.70;12.33;;;;;;;23.61;100.00;98937.39;1737540;82;22377;-72
2022/09/16 05:57:01;;;;;;;11.15;10.15;;;;;;;23.56;100.00;98976.06;1741008;82;21056;-72
2022/09/16 05:59:27;;;;;;;12.45;10.65;;;;;;;23.58;100.00;98996.38;1741019;82;21599;-72
2022/09/16 06:01:55;;;;;;;10.65;9.60;;;;;;;23.84;100.00;99026.52;1741159;82;21087;-72
2022/09/16 06:04:24;;;;;;;5.67;4.95;;;;;;;24.12;100.00;99071.23;1740937;82;21020;-72
2022/09/16 06:06:52;;;;;;;10.18;9.20;;;;;;;24.19;100.00;99114.17;1732564;83;21064;-72
2022/09/16 06:09:23;;;;;;;9.25;6.85;;;;;;;24.33;100.00;99148.45;1719931;82;21113;-73
2022/09/16 06:11:52;;;;;;;12.28;9.00;;;;;;;24.62;100.00;99142.75;1755737;81;21070;-73
2022/09/16 06:14:21;;;;;;;7.97;7.17;;;;;;;24.94;100.00;99159.23;1725579;82;21090;-73
2022/09/16 06:16:48;;;;;;;5.83;5.22;;;;;;;25.02;100.00;99175.39;1723337;82;21016;-72
2022/09/16 06:19:17;;;;;;;6.85;6.15;;;;;;;25.19;100.00;99192.48;1749212;81;21531;-73
2022/09/16 06:21:45;;;;;;;9.83;8.88;;;;;;;25.33;100.00;99198.66;1780122;78;21000;-73
2022/09/16 06:24:15;;;;;;;7.35;6.65;;;;;;;25.33;100.00;99201.30;1784544;79;21013;-73
2022/09/16 06:26:45;;;;;;;7.87;7.12;;;;;;;25.52;100.00;99191.03;1787476;79;21016;-73
2022/09/16 06:29:14;;;;;;;8.70;7.90;;;;;;;25.89;100.00;99235.05;1785506;78;21521;-73
2022/09/16 06:31:41;;;;;;;9.60;7.67;;;;;;;26.15;100.00;99254.12;1772507;79;21018;-73
2022/09/16 06:34:15;;;;;;;8.78;7.87;;;;;;;26.38;100.00;99251.94;1743435;81;21074;-73
2022/09/16 06:36:41;;;;;;;9.70;8.70;;;;;;;26.29;100.00;99281.34;1743234;81;21041;-73
2022/09/16 06:39:12;;;;;;;6.30;5.70;;;;;;;26.83;100.00;99279.09;1740344;81;20971;-74
2022/09/16 06:41:39;;;;;;;7.28;6.58;;;;;;;26.83;100.00;99279.09;1742586;81;21043;-72
2022/09/16 06:44:07;;;;;;;7.25;6.55;;;;;;;26.96;100.00;99305.99;1743868;80;21039;-73
2022/09/16 06:46:36;;;;;;;11.73;8.38;;;;;;;27.16;100.00;99302.02;1747396;81;21017;-73
2022/09/16 06:49:03;;;;;;;9.05;8.15;;;;;;;27.07;100.00;99334.45;1745002;81;21503;-73
2022/09/16 06:51:31;;;;;;;7.55;6.67;;;;;;;27.08;100.00;99333.93;1736299;81;21027;-73
2022/09/16 06:54:05;;;;;;;9.10;8.05;;;;;;;27.21;100.00;99332.61;1738511;81;21039;-73
2022/09/16 06:56:36;;;;;;;12.25;9.20;;;;;;;27.15;100.00;99342.67;1747857;80;21091;-72
2022/09/16 06:59:03;;;;;;;10.60;8.45;;;;;;;27.14;100.00;99343.16;1746248;80;21494;-73
2022/09/16 07:01:32;;;;;;;9.03;7.72;;;;;;;27.25;100.00;99358.13;1752164;81;21041;-73
2022/09/16 07:04:09;;;;;;;5.58;5.08;;;;;;;27.11;100.00;99367.36;1749757;81;21004;-73
2022/09/16 07:06:37;;;;;;;8.53;7.72;;;;;;;27.22;100.00;99348.75;1741888;81;21120;-72
2022/09/16 07:09:04;;;;;;;7.90;6.85;;;;;;;27.27;100.00;99362.70;1747599;81;21558;-73
2022/09/16 07:11:31;;;;;;;9.20;8.13;;;;;;;27.31;100.00;99370.03;1740853;81;21072;-72
2022/09/16 07:14:01;;;;;;;9.38;7.00;;;;;;;27.11;100.00;99367.84;1744762;80;21042;-72
2022/09/16 07:16:28;;;;;;;8.68;7.75;;;;;;;26.92;100.00;99350.98;1740465;81;21705;-73
2022/09/16 07:18:57;;;;;;;15.35;8.98;;;;;;;27.37;100.00;99357.32;1750648;80;21096;-73
2022/09/16 07:21:29;;;;;;;11.30;7.60;;;;;;;27.53;100.00;99361.85;1715873;82;21038;-72
2022/09/16 07:24:00;;;;;;;7.85;6.37;;;;;;;27.82;100.00;99359.25;1699362;83;21146;-73
2022/09/16 07:26:30;;;;;;;7.10;6.37;;;;;;;27.74;100.00;99360.29;1696479;83;21032;-73
2022/09/16 07:29:02;;;;;;;12.65;8.48;;;;;;;28.23;100.00;99377.14;1674464;85;21050;-73
2022/09/16 07:31:34;;;;;;;8.93;7.25;;;;;;;27.94;100.00;99408.36;1682396;83;21125;-73
2022/09/16 07:34:03;;;;;;;10.93;8.00;;;;;;;27.74;100.00;99385.41;1742225;81;21063;-72
2022/09/16 07:36:35;;;;;;;11.33;7.62;;;;;;;27.76;100.00;99374.63;1744050;80;20964;-72
2022/09/16 07:39:04;;;;;;;9.08;6.92;;;;;;;27.52;100.00;99382.71;1741823;80;21019;-73
2022/09/16 07:41:39;;;;;;;9.38;7.28;;;;;;;27.94;100.00;99380.59;1749927;81;21646;-73
2022/09/16 07:44:07;;;;;;;8.50;6.80;;;;;;;28.17;100.00;99383.56;1754960;80;21009;-73
2022/09/16 07:46:36;;;;;;;7.10;5.97;;;;;;;28.36;100.00;99385.00;1745095;81;21016;-72
2022/09/16 07:49:07;;;;;;;9.03;6.20;;;;;;;28.48;100.00;99388.61;1718878;82;21086;-72
2022/09/16 07:51:35;;;;;;;5.58;4.80;;;;;;;27.94;100.00;99403.07;1729926;82;21137;-71
2022/09/16 07:54:07;;;;;;;6.12;5.50;;;;;;;28.05;100.00;99391.86;1734637;82;21019;-73
2022/09/16 07:56:36;;;;;;;7.70;5.78;;;;;;;28.14;100.00;99380.03;1726367;82;21488;-72
2022/09/16 07:59:08;;;;;;;9.25;5.60;;;;;;;28.42;100.00;99402.69;1738538;82;21011;-72
2022/09/16 08:01:35;;;;;;;6.42;5.60;;;;;;;28.47;100.00;99378.25;1735198;82;21321;-73
2022/09/16 08:04:03;;;;;;;5.83;5.20;;;;;;;28.33;100.00;99380.95;1737394;82;21075;-73
2022/09/16 08:06:32;;;;;;;8.25;5.40;;;;;;;28.34;100.00;99373.30;1735693;82;21043;-73
2022/09/16 08:09:01;;;;;;;6.20;4.22;;;;;;;28.21;100.00;99383.16;1725840;82;21581;-72
2022/09/16 08:11:29;;;;;;;7.47;4.80;;;;;;;28.52;100.00;99375.80;1729058;81;21079;-73
2022/09/16 08:14:00;;;;;;;11.28;5.75;;;;;;;28.65;100.00;99376.22;1722519;82;21071;-72
2022/09/16 08:16:27;;;;;;;7.95;5.40;;;;;;;28.33;100.00;99369.56;1732378;82;21592;-73
2022/09/16 08:18:57;;;;;;;8.18;5.05;;;;;;;28.35;100.00;99356.41;1730657;82;21137;-73
2022/09/16 08:21:28;;;;;;;6.72;5.15;;;;;;;28.25;100.00;99374.58;1718695;82;21042;-72
2022/09/16 08:23:56;;;;;;;9.85;5.50;;;;;;;28.39;100.00;99383.27;1729279;82;21065;-73
2022/09/16 08:26:24;;;;;;;9.80;5.95;;;;;;;28.33;100.00;99384.92;1728952;82;21031;-73
2022/09/16 08:28:52;;;;;;;10.05;5.28;;;;;;;28.32;100.00;99385.13;1720028;82;21133;-73
2022/09/16 08:31:20;;;;;;;7.53;4.97;;;;;;;28.61;100.00;99381.64;1729022;82;21613;-72
2022/09/16 08:33:47;;;;;;;8.83;4.95;;;;;;;29.20;100.00;99384.42;1740355;80;21059;-73
2022/09/16 08:36:21;;;;;;;7.70;5.20;;;;;;;29.13;100.00;99379.67;1764282;80;21055;-73
2022/09/16 08:38:55;;;;;;;8.35;5.30;;;;;;;29.16;100.00;99391.98;1692608;83;21134;-72
2022/09/16 08:41:49;;;;;;;6.95;4.80;;;;;;;29.17;100.00;99383.52;1761994;80;21060;-72
2022/09/16 08:44:43;;;;;;;6.67;5.03;;;;;;;29.00;100.00;99391.69;1687740;84;21040;-73
2022/09/16 08:47:35;;;;;;;7.28;5.00;;;;;;;28.92;100.00;99386.14;1750225;80;21097;-73
2022/09/16 08:50:07;;;;;;;12.23;5.10;;;;;;;29.26;100.00;99389.34;1747964;81;21062;-73
2022/09/16 08:52:36;;;;;;;8.15;4.85;;;;;;;28.81;100.00;99394.23;1740857;80;21023;-73
2022/09/16 08:55:38;;;;;;;7.60;4.67;;;;;;;28.51;100.00;99382.94;1744693;81;21026;-73
2022/09/16 08:58:27;;;;;;;9.48;5.55;;;;;;;28.24;100.00;99380.88;1739538;81;21034;-74
2022/09/16 09:01:02;;;;;;;8.10;4.83;;;;;;;28.03;100.00;99367.96;1759943;80;21021;-74
2022/09/16 09:03:39;;;;;;;7.45;4.53;;;;;;;27.83;100.00;99383.86;1741203;81;20987;-73
2022/09/16 09:06:34;;;;;;;5.50;4.42;;;;;;;27.63;100.00;99378.09;1739130;81;21016;-73
2022/09/16 09:09:39;;;;;;;6.45;4.10;;;;;;;27.60;100.00;99361.86;1733798;81;21040;-72
2022/09/16 09:12:38;;;;;;;8.50;4.28;;;;;;;28.00;100.00;99354.63;1744520;81;21090;-72
2022/09/16 09:15:35;;;;;;;7.33;4.50;;;;;;;28.18;100.00;99367.17;1736166;81;20999;-73
2022/09/16 09:18:44;;;;;;;8.63;4.92;;;;;;;28.19;100.00;99367.48;1734124;80;21041;-72
2022/09/16 09:21:47;;;;;;;7.08;5.28;;;;;;;28.39;100.00;99371.36;1749802;80;20996;-73
2022/09/16 09:24:41;;;;;;;5.12;4.42;;;;;;;28.18;100.00;99363.20;1741552;81;21035;-73
2022/09/16 09:27:26;;;;;;;7.53;4.03;;;;;;;28.26;100.00;99375.39;1736742;80;21548;-73
2022/09/16 09:30:13;;;;;;;7.28;4.80;;;;;;;28.29;100.00;99371.01;1750123;80;20976;-73
2022/09/16 09:33:16;;;;;;;7.28;4.78;;;;;;;28.28;100.00;99375.98;1738941;81;21103;-73
2022/09/16 09:35:57;;;;;;;7.83;4.30;;;;;;;28.15;100.00;99366.28;1744923;80;21055;-73
2022/09/16 09:39:05;;;;;;;4.97;4.30;;;;;;;27.94;100.00;99366.04;1737715;81;21071;-74
2022/09/16 09:41:50;;;;;;;8.45;5.20;;;;;;;27.87;100.00;99358.66;1733196;81;21068;-73
2022/09/16 09:44:36;;;;;;;6.97;3.95;;;;;;;27.86;100.00;99350.38;1727752;82;21527;-74
2022/09/16 09:47:26;;;;;;;7.28;4.60;;;;;;;28.05;100.00;99344.23;1748065;80;21083;-73
2022/09/16 09:49:57;;;;;;;3.85;3.12;;;;;;;28.10;100.00;99353.69;1751613;81;21520;-74
2022/09/16 09:52:38;;;;;;;6.60;5.20;;;;;;;28.20;100.00;99351.09;1761173;80;21035;-74
2022/09/16 09:55:15;;;;;;;7.95;4.40;;;;;;;27.97;100.00;99335.22;1752292;81;21058;-73
2022/09/16 09:58:06;;;;;;;6.90;4.25;;;;;;;27.97;100.00;99347.92;1745078;81;21060;-73
2022/09/16 10:00:33;;;;;;;5.87;4.40;;;;;;;28.00;100.00;99361.23;1749079;81;21073;-73
2022/09/16 10:03:13;;;;;;;5.08;4.58;;;;;;;27.99;100.00;99359.63;1741029;81;21015;-72
2022/09/16 10:05:41;;;;;;;5.25;4.15;;;;;;;27.85;100.00;99356.70;1747754;80;21474;-73
2022/09/16 10:08:27;;;;;;;5.55;4.12;;;;;;;28.04;100.00;99358.98;1737243;81;21030;-74
2022/09/16 10:11:00;;;;;;;5.35;4.37;;;;;;;28.20;100.00;99359.03;1726365;82;21541;-74
2022/09/16 10:13:29;;;;;;;5.97;4.17;;;;;;;28.14;100.00;99342.98;1742602;82;20983;-73
2022/09/16 10:16:13;;;;;;;7.47;4.50;;;;;;;28.44;100.00;99367.55;1738215;81;21009;-73
2022/09/16 10:18:40;;;;;;;;;;;;;;;28.63;100.00;99367.67;1743679;81;21074;-73
2022/09/16 10:21:14;;;;;;;7.50;4.85;;;;;;;28.71;100.00;99362.95;1750559;80;20131;-74
2022/09/16 10:23:56;;;;;;;6.17;4.80;;;;;;;28.87;100.00;99351.00;1752267;80;21072;-73
2022/09/16 10:26:27;;;;;;;9.40;4.60;;;;;;;29.04;100.00;99352.62;1733911;81;21168;-73
2022/09/16 10:29:05;;;;;;;7.55;4.53;;;;;;;29.33;100.00;99363.61;1721031;82;21102;-73
2022/09/16 10:31:36;;;;;;;8.88;4.50;;;;;;;29.93;100.00;99376.28;1726768;82;21081;-73
2022/09/16 10:34:08;;;;;;;6.10;4.80;;;;;;;30.21;100.00;99379.72;1726523;82;21071;-74
2022/09/16 10:36:35;;;;;;;6.65;4.28;;;;;;;30.32;100.00;99385.61;1721225;82;21039;-74
2022/09/16 10:39:04;;;;;;;10.78;4.62;;;;;;;30.21;100.00;99406.27;1740606;82;21034;-74
2022/09/16 10:41:46;;;;;;;7.17;4.22;;;;;;;30.10;100.00;99407.80;1733111;82;21034;-73
2022/09/16 10:44:27;;;;;;;6.80;4.27;;;;;;;30.31;100.00;99419.02;1735081;82;21095;-74
2022/09/16 10:46:58;;;;;;;5.53;3.90;;;;;;;30.77;99.05;99416.26;1734862;82;21028;-73
2022/09/16 10:49:49;;;;;;;5.60;4.05;;;;;;;30.48;95.85;99425.34;1737425;81;21051;-74
2022/09/16 10:52:23;;;;;;;7.67;4.45;;;;;;;30.54;99.73;99420.98;1730786;82;21059;-74
2022/09/16 10:54:50;;;;;;;5.17;3.77;;;;;;;30.60;98.83;99417.92;1732274;82;21055;-74
2022/09/16 10:57:32;;;;;;;4.97;3.42;;;;;;;30.29;99.08;99412.59;1724178;82;21180;-73
2022/09/16 11:00:21;;;;;;;6.10;3.42;;;;;;;30.03;99.72;99409.74;1731380;81;21059;-75
2022/09/16 11:03:27;;;;;;;4.95;3.70;;;;;;;29.92;100.00;99406.48;1738812;82;21025;-74
2022/09/16 11:06:22;;;;;;;4.55;2.90;;;;;;;29.94;99.50;99405.23;1729438;82;21043;-74
2022/09/16 11:09:07;;;;;;;7.60;3.30;;;;;;;29.76;96.77;99409.20;1725665;82;21073;-74
2022/09/16 11:11:45;;;;;;;7.35;3.62;;;;;;;29.87;99.85;99403.70;1728090;82;22523;-74
2022/09/16 11:14:35;;;;;;;5.60;3.77;;;;;;;30.02;99.53;99408.63;1729788;82;21140;-74
2022/09/16 11:17:45;;;;;;;6.47;3.80;;;;;;;30.14;97.30;99403.67;1732268;82;21032;-74
2022/09/16 11:20:58;;;;;;;6.72;4.03;;;;;;;30.24;96.16;99409.78;1736877;82;21073;-73
2022/09/16 11:24:23;;;;;;;5.95;3.77;;;;;;;30.00;100.00;99402.73;1726885;82;21107;-73
2022/09/16 11:27:26;;;;;;;7.97;3.85;;;;;;;29.80;100.00;99397.13;1735254;82;21042;-74
2022/09/16 11:30:04;;;;;;;4.33;3.52;;;;;;;29.54;100.00;99395.52;1733320;82;21072;-73
2022/09/16 11:33:00;;;;;;;9.00;3.90;;;;;;;29.37;100.00;99391.30;1727003;81;21125;-74
2022/09/16 11:35:52;;;;;;;8.03;5.75;;;;;;;29.28;100.00;99387.28;1721017;82;21102;-74
2022/09/16 11:38:45;;;;;;;7.53;6.10;;;;;;;29.04;100.00;99376.98;1733477;82;21096;-73
2022/09/16 11:41:41;;;;;;;10.53;6.28;;;;;;;28.72;100.00;99330.13;1731492;82;21075;-74
2022/09/16 11:44:34;;;;;;;15.23;8.23;;;;;;;28.97;100.00;99338.60;1717726;82;21039;-73
2022/09/16 11:47:24;;;;;;;13.30;10.43;;;;;;;28.79;100.00;99328.75;1688413;83;21064;-74
2022/09/16 11:50:22;;;;;;;16.95;11.28;;;;;;;28.34;100.00;99307.66;1733432;82;21507;-74
2022/09/16 11:53:30;;;;;;;16.52;11.28;;;;;;;28.09;100.00;99297.81;1728279;82;21121;-74
2022/09/16 11:56:02;;;;;;;17.17;11.20;;;;;;;28.51;100.00;99304.83;1726835;82;21552;-73
2022/09/16 11:58:47;;;;;;;17.43;13.00;;;;;;;28.36;100.00;99305.60;1735662;82;21071;-74
2022/09/16 12:01:31;;;;;;;16.45;11.75;;;;;;;28.11;100.00;99308.20;1730042;82;21478;-74
2022/09/16 12:04:04;;;;;;;14.10;11.97;;;;;;;27.86;100.00;99296.16;1732398;82;21051;-74
2022/09/16 12:06:48;;;;;;;17.40;10.97;;;;;;;27.94;100.00;99294.14;1732921;82;21048;-74
2022/09/16 12:09:21;;;;;;;14.15;10.72;;;;;;;27.96;100.00;99302.67;1740305;82;21078;-74
2022/09/16 12:11:52;;;;;;;13.98;10.90;;;;;;;28.31;100.00;99318.67;1738331;82;21109;-74
2022/09/16 12:14:34;;;;;;;14.78;11.57;;;;;;;28.16;100.00;99324.23;1736698;82;21050;-74
2022/09/16 12:17:16;;;;;;;16.15;12.98;;;;;;;28.10;100.00;99329.87;1728270;82;21078;-74
2022/09/16 12:19:54;;;;;;;18.67;13.35;;;;;;;27.79;100.00;99322.64;1749010;81;21024;-74
2022/09/16 12:22:33;;;;;;;19.12;13.60;;;;;;;27.42;100.00;99312.28;1751896;81;21091;-74
2022/09/16 12:25:47;;;;;;;16.90;13.50;;;;;;;27.37;100.00;99305.79;1754098;80;21091;-72
2022/09/16 12:28:35;;;;;;;15.55;12.68;;;;;;;27.61;100.00;99301.34;1759829;80;21026;-74
2022/09/16 12:31:28;;;;;;;18.42;13.08;;;;;;;27.66;100.00;99311.60;1756279;81;21090;-73
2022/09/16 12:34:06;;;;;;;21.50;13.47;;;;;;;27.52;100.00;99320.08;1749974;81;21091;-72
2022/09/16 12:36:38;;;;;;;18.70;13.43;;;;;;;27.63;100.00;99335.80;1750811;80;21093;-74
2022/09/16 12:39:05;;;;;;;20.05;14.65;;;;;;;27.61;100.00;99325.94;1756568;81;21063;-74
2022/09/16 12:41:48;;;;;;;21.93;15.48;;;;;;;27.77;100.00;99333.41;1762507;80;21155;-74
2022/09/16 12:44:34;;;;;;;20.83;15.77;;;;;;;27.45;100.00;99352.82;1721351;81;21123;-74
2022/09/16 12:47:30;;;;;;;20.32;14.87;;;;;;;27.75;100.00;99343.39;1750832;81;21522;-74
2022/09/16 12:50:15;;;;;;;18.10;14.18;;;;;;;27.79;100.00;99333.22;1759102;80;21070;-74
2022/09/16 12:53:10;;;;;;;19.65;14.55;;;;;;;27.71;100.00;99332.92;1751580;81;21098;-72
2022/09/16 12:55:52;;;;;;;18.62;14.45;;;;;;;27.37;100.00;99321.64;1748125;81;21058;-73
2022/09/16 12:58:53;;;;;;;20.17;14.30;;;;;;;27.42;100.00;99322.34;1730883;80;21049;-73
2022/09/16 13:01:32;;;;;;;17.10;13.70;;;;;;;27.46;100.00;99341.25;1752775;80;21044;-72
2022/09/16 13:04:10;;;;;;;15.10;11.45;;;;;;;27.57;100.00;99347.20;1747234;81;21030;-73
2022/09/16 13:06:46;;;;;;;12.65;11.33;;;;;;;27.72;100.00;99346.46;1764398;80;21021;-72
2022/09/16 13:09:32;;;;;;;17.20;10.90;;;;;;;27.64;100.00;99357.78;1753119;81;21499;-72
2022/09/16 13:12:04;;;;;;;15.53;11.33;;;;;;;27.16;100.00;99348.25;1754951;80;21050;-73
2022/09/16 13:14:39;;;;;;;14.23;10.58;;;;;;;26.90;100.00;99331.89;1748312;81;22146;-74
2022/09/16 13:17:10;;;;;;;14.47;10.58;;;;;;;26.81;100.00;99343.69;1757880;80;21059;-73
2022/09/16 13:19:50;;;;;;;11.65;10.38;;;;;;;26.92;100.00;99334.62;1751274;80;21503;-72
2022/09/16 13:22:43;;;;;;;14.33;9.85;;;;;;;26.61;100.00;99336.54;1756331;80;21519;-73
2022/09/16 13:25:37;;;;;;;14.13;9.00;;;;;;;26.36;100.00;99321.24;1759113;80;21113;-73
2022/09/16 13:28:35;;;;;;;10.23;8.78;;;;;;;26.47;100.00;99323.80;1750866;80;21521;-73
2022/09/16 13:31:17;;;;;;;14.40;9.75;;;;;;;26.43;100.00;99326.53;1755660;80;21099;-73
2022/09/16 13:34:01;;;;;;;10.00;8.58;;;;;;;26.21;100.00;99307.91;1770162;80;21048;-74
2022/09/16 13:36:32;;;;;;;15.55;8.78;;;;;;;26.42;100.00;99322.76;1759130;80;21022;-73
2022/09/16 13:39:07;;;;;;;19.52;9.43;;;;;;;26.38;100.00;99327.65;1766525;80;21464;-73
2022/09/16 13:41:44;;;;;;;11.78;8.68;;;;;;;26.53;100.00;99331.42;1748383;81;21072;-73
2022/09/16 13:44:39;;;;;;;11.18;8.95;;;;;;;26.56;100.00;99327.88;1761831;80;21024;-72
2022/09/16 13:47:14;;;;;;;9.23;8.10;;;;;;;26.20;100.00;99326.88;1753809;81;21089;-74
2022/09/16 13:50:08;;;;;;;12.07;8.35;;;;;;;26.04;100.00;99333.31;1725194;80;21030;-73
2022/09/16 13:52:36;;;;;;;10.30;8.03;;;;;;;26.09;100.00;99340.63;1755368;80;21102;-72
2022/09/16 13:55:08;;;;;;;10.30;7.83;;;;;;;25.65;100.00;99328.62;1755560;80;21075;-73
2022/09/16 13:57:58;;;;;;;9.20;8.30;;;;;;;25.61;100.00;99321.63;1755368;80;21023;-73
2022/09/16 14:00:33;;;;;;;9.35;8.35;;;;;;;25.81;100.00;99336.72;1750177;81;21058;-74
2022/09/16 14:03:24;;;;;;;8.85;7.90;;;;;;;25.81;100.00;99330.94;1753439;81;21064;-74
2022/09/16 14:05:59;;;;;;;9.10;7.95;;;;;;;25.72;100.00;99332.92;1749503;81;21557;-73
2022/09/16 14:08:40;;;;;;;9.25;7.35;;;;;;;25.62;100.00;99332.47;1759037;80;21531;-72
2022/09/16 14:11:25;;;;;;;9.38;7.12;;;;;;;25.69;100.00;99321.95;1697626;83;21038;-73
2022/09/16 14:13:58;;;;;;;9.13;7.30;;;;;;;25.56;100.00;99322.70;1750292;81;21554;-72
2022/09/16 14:16:28;;;;;;;10.28;7.55;;;;;;;25.57;100.00;99323.03;1745784;81;21011;-73
2022/09/16 14:19:04;;;;;;;8.53;6.83;;;;;;;25.65;100.00;99334.73;1750529;81;21011;-72
2022/09/16 14:21:32;;;;;;;8.70;7.72;;;;;;;25.28;100.00;99327.48;1753279;81;21060;-73
2022/09/16 14:24:18;;;;;;;9.23;7.67;;;;;;;25.25;100.00;99325.25;1760969;80;21098;-73
2022/09/16 14:26:56;;;;;;;10.08;7.40;;;;;;;25.19;100.00;99326.79;1748209;81;21015;-73
2022/09/16 14:29:26;;;;;;;11.95;8.48;;;;;;;25.24;100.00;99324.92;1748069;81;21059;-73
2022/09/16 14:31:56;;;;;;;9.95;8.30;;;;;;;25.12;100.00;99323.79;1754429;80;21003;-73
2022/09/16 14:34:31;;;;;;;9.10;7.58;;;;;;;25.18;100.00;99327.81;1749752;81;21078;-73
2022/09/16 14:36:59;;;;;;;8.25;7.45;;;;;;;25.03;100.00;99335.48;1747860;81;21012;-73
2022/09/16 14:39:28;;;;;;;7.55;6.70;;;;;;;25.13;100.00;99338.60;1761171;80;21011;-73
2022/09/16 14:42:03;;;;;;;8.30;7.00;;;;;;;24.78;100.00;99351.67;1763930;80;21123;-73
2022/09/16 14:44:42;;;;;;;10.70;7.90;;;;;;;25.06;100.00;99356.15;1747804;80;21048;-72
2022/09/16 14:47:32;;;;;;;8.78;7.60;;;;;;;25.06;100.00;99356.15;1728788;81;21052;-72
2022/09/16 14:50:11;;;;;;;9.30;7.60;;;;;;;24.92;100.00;99357.84;1749664;81;21122;-73
2022/09/16 14:52:38;;;;;;;8.58;7.50;;;;;;;24.75;100.00;99355.98;1755281;80;21374;-73
2022/09/16 14:55:14;;;;;;;10.13;7.90;;;;;;;24.89;100.00;99359.56;1753752;80;21008;-72
2022/09/16 14:57:42;;;;;;;9.23;7.85;;;;;;;24.89;100.00;99364.31;1762591;80;21098;-72
2022/09/16 15:00:15;;;;;;;9.23;7.90;;;;;;;25.01;100.00;99379.62;1752710;81;21029;-73
2022/09/16 15:02:46;;;;;;;;;;;;;;;24.65;100.00;99358.92;1755038;81;21550;-73
2022/09/16 15:05:24;;;;;;;8.35;7.55;;;;;;;24.62;100.00;99371.15;1748435;80;20164;-72
2022/09/16 15:07:56;;;;;;;8.55;7.65;;;;;;;24.76;100.00;99368.16;1748955;80;21067;-73
2022/09/16 15:10:27;;;;;;;8.88;7.25;;;;;;;24.70;100.00;99379.44;1751100;81;21109;-72
2022/09/16 15:13:10;;;;;;;8.98;7.95;;;;;;;24.57;100.00;99372.19;1759927;80;21641;-72
2022/09/16 15:15:41;;;;;;;;;;;;;;;24.78;100.00;99377.99;1758167;80;21067;-73
2022/09/16 15:18:27;;;;;;;8.98;8.18;;;;;;;24.73;100.00;99380.36;1749931;80;20156;-72
2022/09/16 15:21:02;;;;;;;9.35;8.33;;;;;;;24.22;100.00;99377.74;1754373;80;21522;-72
2022/09/16 15:23:32;;;;;;;9.93;8.75;;;;;;;24.18;100.00;99367.58;1749648;80;21086;-73
2022/09/16 15:26:17;;;;;;;9.95;8.98;;;;;;;24.09;100.00;99362.13;1761163;80;21056;-73
2022/09/16 15:28:59;;;;;;;10.05;9.00;;;;;;;24.00;100.00;99347.44;1759966;80;21082;-72
2022/09/16 15:31:33;;;;;;;11.10;9.70;;;;;;;23.96;100.00;99339.09;1755591;80;21070;-74
2022/09/16 15:34:06;;;;;;;11.83;10.55;;;;;;;23.70;100.00;99349.23;1756087;81;21705;-73
2022/09/16 15:36:40;;;;;;;11.93;10.60;;;;;;;23.67;100.00;99347.78;1758018;80;21081;-73
2022/09/16 15:39:34;;;;;;;13.55;11.48;;;;;;;23.40;100.00;99344.78;1751117;80;21148;-74
2022/09/16 15:42:14;;;;;;;;;;;;;;;23.48;100.00;99351.77;1744760;80;21501;-73
2022/09/16 15:44:52;;;;;;;12.80;11.43;;;;;;;23.47;100.00;99348.81;1734088;81;20376;-73
2022/09/16 15:47:36;;;;;;;15.88;13.00;;;;;;;23.51;100.00;99355.84;1735924;81;21066;-74
2022/09/16 15:50:11;;;;;;;14.18;12.58;;;;;;;23.39;100.00;99354.95;1687482;84;21285;-74
2022/09/16 15:53:05;;;;;;;14.75;13.32;;;;;;;23.45;100.00;99358.69;1724711;82;21085;-73
2022/09/16 15:55:39;;;;;;;15.25;13.72;;;;;;;23.14;100.00;99368.00;1722283;82;22268;-73
2022/09/16 15:58:19;;;;;;;15.83;14.13;;;;;;;23.29;100.00;99360.96;1720307;82;21069;-73
2022/09/16 16:01:10;;;;;;;16.20;14.47;;;;;;;23.36;100.00;99370.27;1734499;82;21076;-73
2022/09/16 16:03:59;;;;;;;16.15;14.45;;;;;;;23.18;100.00;99377.97;1718620;82;21022;-74
2022/09/16 16:06:53;;;;;;;17.00;15.23;;;;;;;23.26;100.00;99382.84;1729991;82;21104;-74
2022/09/16 16:09:37;;;;;;;16.20;13.90;;;;;;;23.19;100.00;99391.90;1745912;82;21041;-74
2022/09/16 16:12:12;;;;;;;17.37;14.20;;;;;;;23.08;100.00;99399.70;1728932;81;21108;-74
2022/09/16 16:14:40;;;;;;;14.68;13.20;;;;;;;23.13;100.00;99404.42;1731655;82;21105;-75
2022/09/16 16:17:15;;;;;;;14.78;13.20;;;;;;;23.15;100.00;99409.00;1732857;82;22203;-74
2022/09/16 16:19:46;;;;;;;14.93;13.38;;;;;;;23.10;100.00;99406.09;1725394;81;21557;-74
2022/09/16 16:22:14;;;;;;;14.33;12.55;;;;;;;23.12;100.00;99415.92;1724001;82;21552;-74
2022/09/16 16:24:41;;;;;;;14.20;12.43;;;;;;;23.02;100.00;99422.72;1729961;82;21054;-73
2022/09/16 16:27:09;;;;;;;12.53;11.20;;;;;;;22.97;100.00;99427.16;1724165;82;21077;-73
2022/09/16 16:29:37;;;;;;;12.03;10.82;;;;;;;22.85;100.00;99442.14;1725087;82;21073;-73
2022/09/16 16:32:11;;;;;;;10.90;9.80;;;;;;;22.92;100.00;99454.91;1735600;82;21025;-74
2022/09/16 16:34:40;;;;;;;;;;;;;;;22.85;100.00;99453.48;1743155;82;21123;-74
2022/09/16 16:37:08;;;;;;;9.05;8.15;;;;;;;22.75;100.00;99473.84;1721402;82;20150;-74
2022/09/16 16:39:35;;;;;;;9.20;8.30;;;;;;;22.69;100.00;99475.36;1721958;82;21029;-75
2022/09/16 16:42:07;;;;;;;12.85;8.58;;;;;;;22.90;100.00;99479.19;1729972;81;21041;-74
2022/09/16 16:44:35;;;;;;;9.38;8.28;;;;;;;22.95;100.00;99497.37;1738387;81;21089;-73
2022/09/16 16:47:02;;;;;;;8.88;7.97;;;;;;;22.93;100.00;99504.60;1763448;81;21039;-73
2022/09/16 16:49:30;;;;;;;9.33;8.33;;;;;;;22.94;100.00;99495.72;1767929;81;21056;-73
2022/09/16 16:51:57;;;;;;;10.00;8.48;;;;;;;22.91;100.00;99493.45;1694781;83;21558;-74
2022/09/16 16:54:25;;;;;;;10.00;9.10;;;;;;;22.93;100.00;99495.41;1768164;81;21043;-73
2022/09/16 16:56:53;;;;;;;13.18;9.45;;;;;;;22.95;100.00;99490.81;1748146;81;21026;-73
2022/09/16 16:59:21;;;;;;;9.28;8.38;;;;;;;22.84;100.00;99487.75;1765336;80;21075;-73
2022/09/16 17:01:52;;;;;;;11.03;9.18;;;;;;;22.66;100.00;99493.24;1756247;81;21079;-73
2022/09/16 17:04:20;;;;;;;10.50;8.88;;;;;;;22.53;100.00;99495.92;1754949;81;21006;-73
2022/09/16 17:06:48;;;;;;;11.85;8.90;;;;;;;22.45;100.00;99501.20;1754428;80;21495;-74
2022/09/16 17:09:16;;;;;;;9.13;8.23;;;;;;;22.40;100.00;99493.00;1750607;81;21605;-73
2022/09/16 17:11:56;;;;;;;9.98;8.83;;;;;;;22.36;100.00;99493.86;1759677;81;21075;-74
2022/09/16 17:14:28;;;;;;;9.75;8.78;;;;;;;22.33;100.00;99496.80;1699632;83;21069;-74
2022/09/16 17:16:57;;;;;;;11.73;9.10;;;;;;;22.31;100.00;99496.16;1717633;82;21051;-73
2022/09/16 17:19:26;;;;;;;10.30;9.15;;;;;;;22.20;100.00;99497.30;1697526;83;21504;-73
2022/09/16 17:21:54;;;;;;;9.93;8.93;;;;;;;22.12;100.00;99499.95;1696604;83;21087;-74
2022/09/16 17:24:21;;;;;;;19.55;9.05;;;;;;;22.07;100.00;99494.88;1777364;80;21031;-73
2022/09/16 17:26:48;;;;;;;12.80;8.90;;;;;;;21.98;100.00;99491.45;1692210;84;21561;-73
2022/09/16 17:29:16;;;;;;;9.70;8.80;;;;;;;21.85;100.00;99487.20;1760222;80;21091;-73
2022/09/16 17:31:43;;;;;;;10.00;8.93;;;;;;;21.78;100.00;99485.25;1751977;80;21004;-74
2022/09/16 17:34:15;;;;;;;10.32;9.38;;;;;;;21.73;100.00;99490.15;1765012;80;21174;-73
2022/09/16 17:36:45;;;;;;;9.38;8.48;;;;;;;21.67;100.00;99481.64;1763334;81;21161;-73
2022/09/16 17:39:19;;;;;;;10.38;8.98;;;;;;;21.60;100.00;99476.75;1755397;80;21066;-73
2022/09/16 17:41:49;;;;;;;11.33;9.30;;;;;;;21.52;100.00;99476.25;1763147;80;21569;-73